createdAt,value
2023-10-09T00:00:35.613Z,86.77
2023-10-09T00:01:29.961Z,87.12
2023-10-09T00:02:07.558Z,87.05
2023-10-09T00:02:49.915Z,86.97
2023-10-09T00:03:24.657Z,87.04
2023-10-09T00:04:02.719Z,87.27
2023-10-09T00:04:38.957Z,87.37
2023-10-09T00:05:24.386Z,87.48
2023-10-09T00:06:38.448Z,87.42
2023-10-09T00:07:13.562Z,87.90
2023-10-09T00:07:47.406Z,87.53
2023-10-09T00:08:28.895Z,87.73
2023-10-09T00:09:23.813Z,87.54
2023-10-09T00:10:14.477Z,87.92
2023-10-09T00:10:54.711Z,88.11
2023-10-09T00:11:31.551Z,88.22
2023-10-09T00:12:11.708Z,88.13
2023-10-09T00:12:45.992Z,88.00
2023-10-09T00:13:58.985Z,88.37
2023-10-09T00:14:35.501Z,88.54
2023-10-09T00:15:11.342Z,88.33
2023-10-09T00:15:45.427Z,88.23
2023-10-09T00:16:36.461Z,88.38
2023-10-09T00:17:32.726Z,88.43
2023-10-09T00:18:07.447Z,88.30
2023-10-09T00:18:47.744Z,88.20
2023-10-09T00:19:22.468Z,88.25
2023-10-09T00:20:01.376Z,88.24
2023-10-09T00:20:44.023Z,88.30
2023-10-09T00:21:29.523Z,88.75
2023-10-09T00:22:06.672Z,88.69
2023-10-09T00:22:44.808Z,88.65
2023-10-09T00:23:18.174Z,88.52
2023-10-09T00:23:57.503Z,88.53
2023-10-09T00:25:12.344Z,88.49
2023-10-09T00:25:59.857Z,88.57
2023-10-09T00:26:44.467Z,88.78
2023-10-09T00:27:21.181Z,88.66
2023-10-09T00:27:54.763Z,88.86
2023-10-09T00:28:53.732Z,89.00
2023-10-09T00:29:34.545Z,89.01
2023-10-09T00:30:09.280Z,88.84
2023-10-09T00:30:44.216Z,88.99
2023-10-09T00:31:17.843Z,88.85
2023-10-09T00:31:53.023Z,88.70
2023-10-09T00:32:53.588Z,88.74
2023-10-09T00:33:27.367Z,88.52
2023-10-09T00:34:06.893Z,88.55
2023-10-09T00:34:41.784Z,88.56
2023-10-09T00:35:35.259Z,88.77
2023-10-09T00:36:28.879Z,88.43
2023-10-09T00:37:05.888Z,88.34
2023-10-09T00:37:39.478Z,88.59
2023-10-09T00:38:21.882Z,88.31
2023-10-09T00:38:55.986Z,88.23
2023-10-09T00:40:14.204Z,88.32
2023-10-09T00:40:54.182Z,88.87
2023-10-09T00:41:27.694Z,88.47
2023-10-09T00:42:02.638Z,88.55
2023-10-09T00:42:39.466Z,88.35
2023-10-09T00:43:51.077Z,88.34
2023-10-09T00:44:25.606Z,88.94
2023-10-09T00:45:06.243Z,88.58
2023-10-09T00:45:41.617Z,88.77
2023-10-09T00:46:22.328Z,88.73
2023-10-09T00:47:28.711Z,88.88
2023-10-09T00:48:04.284Z,89.06
2023-10-09T00:48:44.566Z,88.94
2023-10-09T00:49:23.329Z,88.88
2023-10-09T00:50:02.308Z,88.83
2023-10-09T00:51:23.709Z,88.55
2023-10-09T00:51:58.075Z,88.70
2023-10-09T00:52:37.858Z,88.70
2023-10-09T00:53:14.247Z,88.38
2023-10-09T00:53:52.937Z,88.40
2023-10-09T00:54:43.020Z,88.32
2023-10-09T00:55:22.435Z,88.23
2023-10-09T00:55:57.938Z,88.21
2023-10-09T00:56:39.987Z,88.23
2023-10-09T00:57:15.436Z,88.29
2023-10-09T00:58:01.238Z,88.18
2023-10-09T00:58:44.817Z,88.33
2023-10-09T00:59:21.619Z,88.23
2023-10-09T01:00:01.013Z,88.20
2023-10-09T01:00:47.265Z,88.05
2023-10-09T01:01:24.496Z,87.99
2023-10-09T01:02:00.448Z,87.98
2023-10-09T01:02:44.647Z,87.86
2023-10-09T01:03:19.534Z,87.73
2023-10-09T01:04:01.003Z,87.59
2023-10-09T01:04:38.641Z,87.60
2023-10-09T01:05:21.603Z,87.40
2023-10-09T01:06:22.863Z,87.71
2023-10-09T01:07:15.015Z,88.30
2023-10-09T01:07:50.096Z,88.67
2023-10-09T01:08:47.201Z,88.59
2023-10-09T01:09:24.509Z,88.83
2023-10-09T01:10:36.083Z,88.60
2023-10-09T01:11:24.893Z,88.49
2023-10-09T01:12:02.232Z,88.51
2023-10-09T01:12:43.713Z,88.66
2023-10-09T01:13:20.078Z,88.63
2023-10-09T01:14:25.378Z,88.59
2023-10-09T01:15:01.380Z,88.57
2023-10-09T01:15:45.517Z,88.38
2023-10-09T01:16:20.488Z,88.54
2023-10-09T01:16:56.350Z,88.58
2023-10-09T01:18:09.672Z,88.29
2023-10-09T01:18:46.139Z,88.56
2023-10-09T01:19:25.885Z,88.28
2023-10-09T01:20:00.236Z,88.05
2023-10-09T01:20:42.969Z,88.00
2023-10-09T01:21:45.012Z,88.24
2023-10-09T01:22:23.010Z,88.21
2023-10-09T01:22:57.404Z,88.33
2023-10-09T01:23:33.645Z,88.30
2023-10-09T01:24:10.545Z,88.31
2023-10-09T01:24:45.136Z,88.43
2023-10-09T01:25:40.470Z,88.39
2023-10-09T01:26:14.329Z,88.55
2023-10-09T01:26:48.927Z,88.59
2023-10-09T01:27:25.662Z,88.79
2023-10-09T01:27:59.450Z,88.84
2023-10-09T01:29:16.284Z,88.76
2023-10-09T01:29:52.005Z,88.71
2023-10-09T01:30:26.000Z,88.87
2023-10-09T01:30:59.944Z,89.06
2023-10-09T01:31:39.038Z,89.05
2023-10-09T01:32:46.748Z,89.17
2023-10-09T01:33:24.064Z,89.07
2023-10-09T01:34:01.265Z,89.04
2023-10-09T01:34:45.231Z,89.10
2023-10-09T01:35:22.879Z,89.30
2023-10-09T01:36:00.612Z,89.09
2023-10-09T01:36:43.323Z,89.13
2023-10-09T01:37:21.479Z,88.95
2023-10-09T01:37:58.267Z,89.07
2023-10-09T01:38:42.132Z,89.13
2023-10-09T01:39:25.636Z,89.34
2023-10-09T01:40:39.231Z,89.60
2023-10-09T01:41:17.285Z,89.44
2023-10-09T01:41:53.515Z,89.68
2023-10-09T01:42:36.658Z,89.57
2023-10-09T01:43:14.139Z,89.81
2023-10-09T01:44:18.613Z,89.89
2023-10-09T01:44:54.766Z,89.90
2023-10-09T01:45:28.885Z,89.73
2023-10-09T01:46:02.936Z,89.76
2023-10-09T01:46:37.547Z,89.81
2023-10-09T01:47:15.689Z,89.71
2023-10-09T01:48:06.151Z,89.72
2023-10-09T01:48:45.468Z,89.79
2023-10-09T01:49:23.077Z,90.07
2023-10-09T01:49:59.447Z,90.11
2023-10-09T01:50:37.061Z,89.87
2023-10-09T01:51:41.171Z,89.86
2023-10-09T01:52:18.340Z,89.98
2023-10-09T01:52:55.279Z,90.08
2023-10-09T01:53:31.897Z,90.02
2023-10-09T01:54:05.532Z,90.26
2023-10-09T01:54:41.466Z,90.00
2023-10-09T01:55:41.502Z,89.95
2023-10-09T01:56:16.754Z,89.98
2023-10-09T01:56:50.529Z,89.78
2023-10-09T01:57:25.889Z,89.60
2023-10-09T01:57:59.901Z,89.47
2023-10-09T01:59:07.368Z,89.65
2023-10-09T01:59:51.019Z,89.76
2023-10-09T02:03:26.110Z,89.23
2023-10-09T02:04:07.845Z,89.25
2023-10-09T02:04:44.739Z,89.16
2023-10-09T02:05:18.451Z,89.25
2023-10-09T02:05:53.193Z,89.30
2023-10-09T02:06:53.299Z,89.71
2023-10-09T02:07:31.320Z,89.54
2023-10-09T02:08:06.700Z,89.52
2023-10-09T02:08:40.738Z,89.70
2023-10-09T02:09:23.664Z,89.65
2023-10-09T02:10:49.606Z,89.69
2023-10-09T02:11:38.078Z,89.73
2023-10-09T02:12:12.205Z,89.69
2023-10-09T02:12:48.509Z,89.61
2023-10-09T02:13:30.697Z,89.62
2023-10-09T02:14:20.777Z,89.81
2023-10-09T02:14:57.567Z,90.25
2023-10-09T02:15:44.315Z,90.00
2023-10-09T02:16:29.906Z,89.74
2023-10-09T02:17:04.063Z,89.86
2023-10-09T02:17:53.716Z,89.97
2023-10-09T02:18:47.525Z,89.74
2023-10-09T02:19:33.204Z,89.69
2023-10-09T02:20:24.655Z,89.61
2023-10-09T02:21:01.568Z,89.80
2023-10-09T02:21:43.504Z,89.93
2023-10-09T02:22:18.203Z,89.99
2023-10-09T02:22:54.646Z,90.05
2023-10-09T02:23:49.731Z,89.76
2023-10-09T02:24:41.827Z,89.92
2023-10-09T02:25:45.334Z,89.89
2023-10-09T02:26:27.874Z,89.85
2023-10-09T02:27:08.540Z,90.07
2023-10-09T02:27:54.973Z,90.08
2023-10-09T02:28:34.505Z,89.81
2023-10-09T02:29:14.187Z,90.11
2023-10-09T02:29:59.746Z,90.06
2023-10-09T02:30:36.137Z,90.17
2023-10-09T02:31:13.555Z,90.25
2023-10-09T02:31:53.283Z,90.51
2023-10-09T02:32:28.164Z,90.39
2023-10-09T02:33:37.769Z,90.41
2023-10-09T02:34:12.715Z,90.48
2023-10-09T02:34:48.081Z,90.51
2023-10-09T02:35:30.437Z,90.31
2023-10-09T02:36:06.790Z,90.08
2023-10-09T02:36:43.339Z,90.32
2023-10-09T02:37:26.829Z,90.34
2023-10-09T02:38:00.757Z,90.30
2023-10-09T02:38:39.936Z,90.25
2023-10-09T02:39:30.489Z,90.59
2023-10-09T02:40:10.262Z,90.88
2023-10-09T02:41:04.186Z,91.07
2023-10-09T02:41:51.170Z,91.05
2023-10-09T02:42:25.081Z,91.04
2023-10-09T02:42:59.963Z,91.18
2023-10-09T02:43:46.226Z,91.27
2023-10-09T02:44:26.119Z,91.12
2023-10-09T02:45:36.582Z,91.16
2023-10-09T02:46:15.656Z,91.23
2023-10-09T02:46:49.364Z,91.21
2023-10-09T02:47:26.614Z,91.58
2023-10-09T02:48:01.947Z,91.36
2023-10-09T02:49:11.359Z,91.65
2023-10-09T02:49:45.208Z,91.42
2023-10-09T02:50:22.374Z,91.27
2023-10-09T02:50:56.306Z,91.44
2023-10-09T02:51:30.360Z,91.80
2023-10-09T02:52:08.849Z,91.47
2023-10-09T02:53:00.477Z,91.45
2023-10-09T02:53:38.972Z,91.40
2023-10-09T02:54:24.954Z,91.31
2023-10-09T02:55:02.825Z,91.40
2023-10-09T02:55:40.425Z,91.36
2023-10-09T02:56:39.460Z,91.42
2023-10-09T02:57:23.334Z,91.33
2023-10-09T02:58:19.926Z,91.58
2023-10-09T02:58:53.539Z,91.37
2023-10-09T02:59:27.319Z,91.45
2023-10-09T03:00:31.188Z,91.55
2023-10-09T03:01:05.118Z,91.52
2023-10-09T03:01:40.020Z,91.73
2023-10-09T03:02:14.046Z,91.65
2023-10-09T03:02:51.627Z,91.72
2023-10-09T03:04:00.289Z,91.58
2023-10-09T03:04:34.593Z,91.83
2023-10-09T03:05:13.503Z,91.70
2023-10-09T03:05:47.001Z,91.89
2023-10-09T03:06:26.576Z,91.80
2023-10-09T03:07:35.764Z,91.70
2023-10-09T03:08:10.306Z,91.88
2023-10-09T03:08:44.214Z,91.88
2023-10-09T03:09:28.989Z,91.93
2023-10-09T03:10:03.218Z,92.05
2023-10-09T03:10:36.821Z,92.00
2023-10-09T03:11:22.926Z,91.82
2023-10-09T03:12:04.008Z,91.90
2023-10-09T03:12:38.473Z,92.00
2023-10-09T03:13:12.627Z,91.87
2023-10-09T03:13:46.908Z,91.80
2023-10-09T03:14:22.550Z,91.72
2023-10-09T03:15:10.624Z,91.73
2023-10-09T03:15:44.471Z,91.55
2023-10-09T03:16:22.503Z,91.53
2023-10-09T03:16:59.722Z,91.48
2023-10-09T03:17:35.742Z,91.19
2023-10-09T03:18:09.568Z,91.22
2023-10-09T03:18:57.542Z,90.96
2023-10-09T03:19:32.360Z,91.15
2023-10-09T03:20:13.952Z,91.04
2023-10-09T03:20:47.996Z,91.16
2023-10-09T03:21:21.716Z,91.02
2023-10-09T03:22:32.713Z,90.93
2023-10-09T03:23:09.659Z,91.00
2023-10-09T03:23:45.601Z,90.97
2023-10-09T03:24:21.433Z,90.96
2023-10-09T03:24:57.008Z,90.89
2023-10-09T03:25:30.469Z,90.85
2023-10-09T03:26:21.483Z,90.83
2023-10-09T03:26:59.369Z,90.85
2023-10-09T03:27:32.875Z,90.88
2023-10-09T03:28:07.861Z,90.90
2023-10-09T03:28:41.567Z,90.85
2023-10-09T03:29:57.019Z,91.01
2023-10-09T03:30:34.388Z,91.23
2023-10-09T03:31:08.729Z,91.09
2023-10-09T03:31:44.765Z,91.02
2023-10-09T03:32:18.458Z,91.29
2023-10-09T03:32:53.050Z,91.18
2023-10-09T03:33:35.090Z,91.02
2023-10-09T03:34:11.947Z,91.18
2023-10-09T03:34:47.220Z,90.89
2023-10-09T03:35:35.764Z,91.09
2023-10-09T03:36:12.892Z,90.93
2023-10-09T03:36:49.940Z,90.92
2023-10-09T03:37:37.225Z,90.97
2023-10-09T03:38:13.576Z,91.11
2023-10-09T03:38:46.935Z,91.16
2023-10-09T03:39:39.109Z,90.99
2023-10-09T03:40:19.030Z,91.18
2023-10-09T03:41:22.051Z,91.16
2023-10-09T03:41:56.242Z,91.43
2023-10-09T03:42:32.117Z,91.23
2023-10-09T03:43:06.344Z,91.39
2023-10-09T03:43:42.389Z,91.38
2023-10-09T03:44:19.630Z,91.18
2023-10-09T03:45:14.207Z,91.26
2023-10-09T03:45:55.691Z,91.19
2023-10-09T03:46:34.552Z,91.23
2023-10-09T03:47:10.994Z,91.08
2023-10-09T03:47:45.852Z,91.36
2023-10-09T03:48:58.252Z,91.36
2023-10-09T03:49:33.439Z,91.40
2023-10-09T03:50:25.369Z,91.35
2023-10-09T03:51:10.932Z,91.33
2023-10-09T03:51:46.960Z,91.39
2023-10-09T03:52:32.425Z,91.43
2023-10-09T03:53:09.339Z,91.50
2023-10-09T03:53:44.243Z,91.45
2023-10-09T03:54:21.914Z,91.26
2023-10-09T03:54:56.326Z,91.13
2023-10-09T03:55:30.307Z,91.09
2023-10-09T03:56:17.276Z,91.15
2023-10-09T03:56:51.715Z,91.17
2023-10-09T03:57:26.295Z,91.22
2023-10-09T03:58:01.234Z,91.06
2023-10-09T03:58:36.116Z,91.14
2023-10-09T03:59:12.081Z,91.06
2023-10-09T03:59:56.880Z,90.91
2023-10-09T04:00:31.342Z,90.93
2023-10-09T04:01:09.061Z,90.82
2023-10-09T04:01:43.814Z,90.77
2023-10-09T04:02:17.643Z,90.67
2023-10-09T04:02:51.924Z,90.45
2023-10-09T04:03:38.564Z,90.55
2023-10-09T04:04:15.870Z,90.66
2023-10-09T04:04:53.341Z,90.62
2023-10-09T04:05:27.828Z,90.66
2023-10-09T04:06:01.904Z,90.40
2023-10-09T04:06:35.889Z,90.35
2023-10-09T04:07:22.917Z,90.42
2023-10-09T04:07:59.728Z,90.39
2023-10-09T04:08:34.956Z,90.47
2023-10-09T04:09:15.522Z,90.32
2023-10-09T04:09:55.468Z,90.33
2023-10-09T04:10:45.129Z,90.42
2023-10-09T04:11:27.606Z,90.43
2023-10-09T04:12:21.491Z,90.31
2023-10-09T04:12:55.013Z,90.32
2023-10-09T04:13:35.290Z,90.22
2023-10-09T04:14:13.993Z,90.11
2023-10-09T04:14:51.098Z,89.97
2023-10-09T04:15:37.118Z,89.92
2023-10-09T04:16:31.246Z,90.03
2023-10-09T04:17:07.711Z,89.83
2023-10-09T04:17:44.704Z,89.62
2023-10-09T04:18:29.799Z,89.70
2023-10-09T04:19:26.819Z,89.78
2023-10-09T04:20:18.912Z,89.72
2023-10-09T04:21:20.925Z,89.94
2023-10-09T04:21:57.069Z,90.12
2023-10-09T04:22:32.894Z,90.11
2023-10-09T04:23:36.492Z,90.06
2023-10-09T04:24:16.622Z,90.06
2023-10-09T04:24:52.851Z,90.16
2023-10-09T04:25:27.230Z,90.08
2023-10-09T04:26:01.404Z,90.33
2023-10-09T04:27:10.422Z,90.39
2023-10-09T04:27:46.064Z,90.44
2023-10-09T04:28:20.833Z,90.06
2023-10-09T04:28:58.505Z,90.04
2023-10-09T04:29:48.396Z,89.86
2023-10-09T04:30:57.092Z,89.83
2023-10-09T04:31:36.369Z,89.59
2023-10-09T04:32:19.158Z,89.56
2023-10-09T04:32:56.753Z,89.61
2023-10-09T04:33:30.371Z,89.48
2023-10-09T04:34:30.217Z,89.94
2023-10-09T04:35:24.215Z,89.74
2023-10-09T04:36:22.681Z,90.21
2023-10-09T04:37:20.326Z,90.34
2023-10-09T04:38:35.999Z,89.61
2023-10-09T04:39:12.242Z,89.70
2023-10-09T04:39:49.101Z,89.92
2023-10-09T04:40:41.098Z,90.04
2023-10-09T04:41:29.129Z,90.10
2023-10-09T04:42:37.938Z,90.39
2023-10-09T04:43:21.994Z,90.37
2023-10-09T04:44:16.601Z,90.81
2023-10-09T04:45:01.893Z,90.84
2023-10-09T04:46:14.469Z,90.86
2023-10-09T04:47:19.639Z,90.72
2023-10-09T04:48:08.345Z,90.93
2023-10-09T04:48:47.282Z,91.24
2023-10-09T04:49:29.717Z,91.21
2023-10-09T04:50:17.816Z,91.18
2023-10-09T04:51:12.097Z,91.21
2023-10-09T04:52:01.073Z,91.79
2023-10-09T04:52:35.010Z,92.36
2023-10-09T04:53:17.560Z,91.94
2023-10-09T04:54:15.331Z,91.74
2023-10-09T04:55:06.760Z,92.48
2023-10-09T04:55:40.492Z,92.61
2023-10-09T04:56:17.996Z,92.61
2023-10-09T04:56:54.273Z,92.35
2023-10-09T04:58:03.282Z,92.15
2023-10-09T04:58:40.917Z,92.15
2023-10-09T04:59:20.041Z,92.04
2023-10-09T04:59:53.988Z,91.87
2023-10-09T05:00:28.675Z,92.03
2023-10-09T05:01:38.146Z,92.48
2023-10-09T05:02:20.697Z,92.67
2023-10-09T05:03:08.963Z,92.71
2023-10-09T05:03:42.957Z,92.68
2023-10-09T05:04:48.779Z,92.79
2023-10-09T05:05:43.147Z,92.91
2023-10-09T05:06:35.758Z,93.16
2023-10-09T05:07:30.445Z,93.42
2023-10-09T05:08:20.286Z,93.90
2023-10-09T05:09:50.173Z,93.16
2023-10-09T05:10:27.171Z,93.80
2023-10-09T05:11:04.594Z,93.61
2023-10-09T05:11:55.118Z,93.41
2023-10-09T05:12:30.737Z,93.29
2023-10-09T05:13:15.401Z,93.49
2023-10-09T05:13:59.398Z,93.00
2023-10-09T05:14:47.083Z,93.57
2023-10-09T05:15:28.341Z,93.73
2023-10-09T05:16:04.353Z,93.29
2023-10-09T05:16:57.439Z,93.08
2023-10-09T05:17:31.666Z,93.21
2023-10-09T05:18:10.968Z,93.37
2023-10-09T05:18:46.988Z,93.34
2023-10-09T05:19:39.822Z,93.14
2023-10-09T05:20:30.792Z,93.19
2023-10-09T05:21:14.261Z,93.36
2023-10-09T05:21:48.897Z,93.34
2023-10-09T05:22:31.488Z,93.34
2023-10-09T05:23:37.728Z,93.29
2023-10-09T05:24:25.230Z,93.47
2023-10-09T05:25:00.102Z,93.35
2023-10-09T05:25:52.104Z,93.44
2023-10-09T05:26:38.968Z,93.39
2023-10-09T05:27:41.697Z,93.29
2023-10-09T05:28:32.808Z,93.26
2023-10-09T05:29:25.828Z,92.97
2023-10-09T05:30:14.360Z,92.84
2023-10-09T05:30:59.994Z,92.85
2023-10-09T05:31:52.299Z,92.97
2023-10-09T05:32:37.248Z,93.04
2023-10-09T05:33:29.699Z,93.14
2023-10-09T05:34:08.230Z,93.02
2023-10-09T05:35:00.769Z,92.82
2023-10-09T05:36:00.919Z,92.71
2023-10-09T05:37:12.347Z,92.99
2023-10-09T05:37:47.355Z,92.81
2023-10-09T05:38:26.702Z,92.82
2023-10-09T05:39:00.567Z,92.83
2023-10-09T05:39:42.899Z,92.67
2023-10-09T05:40:36.946Z,92.63
2023-10-09T05:41:29.305Z,92.37
2023-10-09T05:42:11.189Z,92.29
2023-10-09T05:42:45.840Z,92.14
2023-10-09T05:43:39.268Z,92.10
2023-10-09T05:44:45.653Z,92.14
2023-10-09T05:45:20.319Z,92.24
2023-10-09T05:46:09.975Z,92.15
2023-10-09T05:47:03.322Z,92.26
2023-10-09T05:48:05.059Z,92.07
2023-10-09T05:48:41.973Z,92.02
2023-10-09T05:49:26.319Z,91.91
2023-10-09T05:50:27.192Z,91.67
2023-10-09T05:51:35.912Z,91.27
2023-10-09T05:52:34.109Z,91.41
2023-10-09T05:53:11.307Z,91.52
2023-10-09T05:53:45.056Z,90.92
2023-10-09T05:54:36.954Z,90.60
2023-10-09T05:55:25.729Z,90.55
2023-10-09T05:56:25.507Z,90.64
2023-10-09T05:57:22.077Z,90.49
2023-10-09T05:58:15.223Z,90.58
2023-10-09T05:59:07.362Z,90.54
2023-10-09T06:00:17.322Z,90.11
2023-10-09T06:01:10.255Z,90.62
2023-10-09T06:01:58.943Z,91.20
2023-10-09T06:03:07.888Z,90.95
2023-10-09T06:04:11.476Z,89.50
2023-10-09T06:04:56.184Z,90.14
2023-10-09T06:06:03.206Z,90.40
2023-10-09T06:07:09.197Z,90.36
2023-10-09T06:08:09.058Z,91.06
2023-10-09T06:08:43.043Z,90.14
2023-10-09T06:09:19.986Z,89.82
2023-10-09T06:09:58.872Z,90.39
2023-10-09T06:10:43.160Z,91.05
2023-10-09T06:11:40.942Z,91.98
2023-10-09T06:12:33.750Z,92.01
2023-10-09T06:13:08.760Z,92.06
2023-10-09T06:13:48.311Z,92.01
2023-10-09T06:14:31.927Z,91.77
2023-10-09T06:15:47.506Z,91.71
2023-10-09T06:16:31.599Z,91.66
2023-10-09T06:17:24.791Z,91.74
2023-10-09T06:18:18.604Z,91.48
2023-10-09T06:19:28.830Z,91.15
2023-10-09T06:20:24.331Z,90.68
2023-10-09T06:21:06.611Z,90.46
2023-10-09T06:21:41.438Z,91.18
2023-10-09T06:22:41.069Z,91.01
2023-10-09T06:23:42.336Z,90.81
2023-10-09T06:24:16.969Z,90.87
2023-10-09T06:24:56.639Z,90.95
2023-10-09T06:25:34.463Z,91.09
2023-10-09T06:26:25.583Z,91.13
2023-10-09T06:27:07.102Z,90.78
2023-10-09T06:27:44.212Z,90.75
2023-10-09T06:28:20.198Z,90.59
2023-10-09T06:29:12.623Z,90.54
2023-10-09T06:29:46.005Z,91.42
2023-10-09T06:30:19.691Z,91.24
2023-10-09T06:31:25.963Z,90.80
2023-10-09T06:32:00.498Z,91.06
2023-10-09T06:32:34.227Z,90.59
2023-10-09T06:33:27.997Z,90.52
2023-10-09T06:34:17.203Z,90.68
2023-10-09T06:35:17.365Z,91.11
2023-10-09T06:35:56.939Z,90.68
2023-10-09T06:36:32.850Z,90.92
2023-10-09T06:37:19.079Z,90.98
2023-10-09T06:38:05.245Z,90.84
2023-10-09T06:39:15.238Z,91.30
2023-10-09T06:39:57.463Z,91.35
2023-10-09T06:40:38.222Z,91.28
2023-10-09T06:41:11.522Z,91.84
2023-10-09T06:41:46.837Z,91.16
2023-10-09T06:42:35.758Z,90.71
2023-10-09T06:43:11.100Z,90.62
2023-10-09T06:43:44.528Z,90.64
2023-10-09T06:44:37.882Z,90.81
2023-10-09T06:45:15.183Z,90.81
2023-10-09T06:46:11.175Z,90.80
2023-10-09T06:46:54.203Z,90.66
2023-10-09T06:47:27.724Z,90.26
2023-10-09T06:48:11.558Z,90.14
2023-10-09T06:48:57.535Z,89.79
2023-10-09T06:49:34.662Z,89.39
2023-10-09T06:50:57.393Z,89.29
2023-10-09T06:51:30.761Z,88.85
2023-10-09T06:52:16.955Z,88.53
2023-10-09T06:53:24.664Z,88.71
2023-10-09T06:54:18.058Z,89.35
2023-10-09T06:54:52.480Z,90.69
2023-10-09T06:55:58.538Z,90.57
2023-10-09T06:56:31.956Z,90.49
2023-10-09T06:57:28.208Z,90.42
2023-10-09T06:58:16.761Z,90.57
2023-10-09T06:58:51.332Z,90.36
2023-10-09T06:59:26.041Z,90.21
2023-10-09T07:00:18.311Z,90.68
2023-10-09T07:01:10.256Z,90.87
2023-10-09T07:02:18.027Z,90.40
2023-10-09T07:02:52.098Z,91.20
2023-10-09T07:03:35.512Z,91.89
2023-10-09T07:04:32.900Z,91.76
2023-10-09T07:06:25.890Z,91.66
2023-10-09T07:07:00.793Z,90.91
2023-10-09T07:07:36.631Z,90.78
2023-10-09T07:08:30.153Z,91.01
2023-10-09T07:09:07.640Z,90.90
2023-10-09T07:10:07.856Z,90.58
2023-10-09T07:10:41.383Z,90.16
2023-10-09T07:11:43.830Z,90.31
2023-10-09T07:12:27.675Z,90.37
2023-10-09T07:13:38.606Z,89.50
2023-10-09T07:14:53.585Z,89.22
2023-10-09T07:15:45.384Z,87.84
2023-10-09T07:16:30.382Z,88.22
2023-10-09T07:17:25.996Z,88.22
2023-10-09T07:18:21.508Z,88.54
2023-10-09T07:18:56.456Z,87.41
2023-10-09T07:19:36.595Z,86.24
2023-10-09T07:20:30.803Z,86.72
2023-10-09T07:21:12.974Z,86.07
2023-10-09T07:22:22.503Z,86.15
2023-10-09T07:22:58.207Z,86.21
2023-10-09T07:23:34.655Z,86.16
2023-10-09T07:24:22.605Z,86.33
2023-10-09T07:24:58.855Z,85.53
2023-10-09T07:26:26.793Z,85.22
2023-10-09T07:27:07.941Z,85.19
2023-10-09T07:27:51.178Z,85.33
2023-10-09T07:28:38.343Z,85.22
2023-10-09T07:29:50.683Z,84.89
2023-10-09T07:30:30.398Z,85.05
2023-10-09T07:31:04.712Z,85.07
2023-10-09T07:31:41.607Z,84.72
2023-10-09T07:32:21.778Z,84.56
2023-10-09T07:33:32.762Z,83.74
2023-10-09T07:34:09.002Z,83.80
2023-10-09T07:34:54.634Z,83.03
2023-10-09T07:35:46.465Z,83.07
2023-10-09T07:36:36.469Z,83.60
2023-10-09T07:37:20.584Z,83.08
2023-10-09T07:37:54.340Z,83.11
2023-10-09T07:38:31.218Z,82.53
2023-10-09T07:39:15.379Z,82.42
2023-10-09T07:39:58.672Z,82.31
2023-10-09T07:41:08.691Z,81.88
2023-10-09T07:42:03.284Z,81.98
2023-10-09T07:42:37.049Z,82.82
2023-10-09T07:43:17.850Z,83.08
2023-10-09T07:43:52.422Z,83.15
2023-10-09T07:44:38.998Z,83.04
2023-10-09T07:45:21.307Z,83.14
2023-10-09T07:46:15.341Z,82.48
2023-10-09T07:47:14.482Z,82.47
2023-10-09T07:48:07.267Z,81.36
2023-10-09T07:48:50.202Z,82.27
2023-10-09T07:49:32.843Z,82.52
2023-10-09T07:50:12.890Z,82.80
2023-10-09T07:50:50.285Z,82.35
2023-10-09T07:51:24.980Z,81.98
2023-10-09T07:52:00.290Z,81.62
2023-10-09T07:52:33.644Z,82.00
2023-10-09T07:53:28.097Z,82.10
2023-10-09T07:54:10.772Z,81.92
2023-10-09T07:54:51.538Z,82.21
2023-10-09T07:55:28.293Z,82.15
2023-10-09T07:56:08.325Z,79.97
2023-10-09T07:57:17.526Z,80.64
2023-10-09T07:57:53.603Z,80.64
2023-10-09T07:58:27.476Z,80.93
2023-10-09T07:59:01.833Z,80.88
2023-10-09T07:59:38.561Z,79.92
2023-10-09T08:01:08.205Z,78.11
2023-10-09T08:01:54.010Z,78.51
2023-10-09T08:02:33.841Z,79.06
2023-10-09T08:03:25.761Z,77.86
2023-10-09T08:05:00.289Z,77.81
2023-10-09T08:05:45.998Z,76.58
2023-10-09T08:06:38.220Z,75.85
2023-10-09T08:08:02.034Z,76.76
2023-10-09T08:08:38.823Z,76.24
2023-10-09T08:09:20.104Z,75.43
2023-10-09T08:10:15.743Z,75.85
2023-10-09T08:11:07.679Z,75.48
2023-10-09T08:12:51.044Z,75.36
2023-10-09T08:13:46.337Z,74.76
2023-10-09T08:14:36.459Z,74.72
2023-10-09T08:15:20.554Z,74.20
2023-10-09T08:16:26.239Z,74.20
2023-10-09T08:17:17.911Z,74.76
2023-10-09T08:17:56.186Z,75.26
2023-10-09T08:18:30.109Z,74.31
2023-10-09T08:19:25.368Z,73.88
2023-10-09T08:20:18.724Z,75.11
2023-10-09T08:21:12.785Z,74.38
2023-10-09T08:22:06.057Z,74.34
2023-10-09T08:22:46.647Z,74.62
2023-10-09T08:23:49.752Z,75.25
2023-10-09T08:24:42.924Z,73.82
2023-10-09T08:25:36.472Z,74.41
2023-10-09T08:26:16.503Z,73.65
2023-10-09T08:27:10.202Z,74.40
2023-10-09T08:27:55.882Z,74.79
2023-10-09T08:28:52.130Z,74.79
2023-10-09T08:29:36.078Z,74.06
2023-10-09T08:30:28.061Z,74.52
2023-10-09T08:31:04.886Z,75.22
2023-10-09T08:31:47.586Z,75.05
2023-10-09T08:35:07.830Z,74.62
2023-10-09T08:35:49.684Z,74.95
2023-10-09T08:36:38.367Z,74.95
2023-10-09T08:37:14.682Z,74.70
2023-10-09T08:37:50.421Z,74.64
2023-10-09T08:38:28.306Z,74.64
2023-10-09T08:39:15.218Z,74.59
2023-10-09T08:40:10.527Z,74.10
2023-10-09T08:40:44.771Z,73.56
2023-10-09T08:41:19.262Z,73.09
2023-10-09T08:41:59.646Z,73.16
2023-10-09T08:42:33.678Z,73.50
2023-10-09T08:43:20.274Z,74.11
2023-10-09T08:44:04.381Z,73.22
2023-10-09T08:44:41.109Z,73.63
2023-10-09T08:45:16.097Z,73.52
2023-10-09T08:45:53.387Z,73.29
2023-10-09T08:46:28.955Z,73.12
2023-10-09T08:47:39.724Z,73.13
2023-10-09T08:48:17.393Z,73.16
2023-10-09T08:48:52.407Z,73.64
2023-10-09T08:49:27.489Z,73.66
2023-10-09T08:50:03.103Z,73.56
2023-10-09T08:50:37.425Z,73.29
2023-10-09T08:51:25.455Z,72.92
2023-10-09T08:52:04.676Z,72.83
2023-10-09T08:52:39.217Z,72.66
2023-10-09T08:53:13.933Z,72.71
2023-10-09T08:53:48.474Z,72.48
2023-10-09T08:54:22.342Z,72.78
2023-10-09T08:55:14.308Z,73.14
2023-10-09T08:55:48.034Z,72.92
2023-10-09T08:56:25.358Z,73.04
2023-10-09T08:56:59.940Z,72.42
2023-10-09T08:57:35.333Z,73.03
2023-10-09T08:58:19.622Z,71.86
2023-10-09T08:59:01.139Z,72.51
2023-10-09T08:59:35.647Z,71.97
2023-10-09T09:00:12.835Z,72.46
2023-10-09T09:00:49.757Z,72.57
2023-10-09T09:01:24.347Z,73.06
2023-10-09T09:02:01.437Z,73.31
2023-10-09T09:02:45.319Z,73.60
2023-10-09T09:03:24.425Z,73.37
2023-10-09T09:03:58.275Z,73.38
2023-10-09T09:04:42.410Z,73.07
2023-10-09T09:05:20.750Z,73.19
2023-10-09T09:06:04.147Z,73.82
2023-10-09T09:06:45.919Z,74.49
2023-10-09T09:07:27.476Z,74.83
2023-10-09T09:08:01.255Z,74.58
2023-10-09T09:08:38.245Z,74.77
2023-10-09T09:09:15.974Z,73.92
2023-10-09T09:09:58.629Z,73.48
2023-10-09T09:10:48.254Z,73.07
2023-10-09T09:11:26.041Z,72.59
2023-10-09T09:12:01.542Z,72.83
2023-10-09T09:12:39.360Z,73.22
2023-10-09T09:13:20.021Z,73.93
2023-10-09T09:14:20.479Z,74.23
2023-10-09T09:14:54.295Z,73.96
2023-10-09T09:15:30.082Z,73.08
2023-10-09T09:16:04.372Z,73.25
2023-10-09T09:16:45.783Z,73.45
2023-10-09T09:17:33.771Z,73.34
2023-10-09T09:18:19.170Z,72.79
2023-10-09T09:18:57.884Z,72.61
2023-10-09T09:19:38.259Z,73.31
2023-10-09T09:20:24.520Z,73.55
2023-10-09T09:20:59.781Z,73.24
2023-10-09T09:22:16.089Z,73.04
2023-10-09T09:22:54.199Z,72.63
2023-10-09T09:23:28.229Z,72.30
2023-10-09T09:24:03.208Z,72.79
2023-10-09T09:24:38.524Z,73.37
2023-10-09T09:26:01.775Z,73.04
2023-10-09T09:26:40.250Z,72.38
2023-10-09T09:27:33.246Z,72.43
2023-10-09T09:28:14.143Z,73.35
2023-10-09T09:28:56.557Z,73.14
2023-10-09T09:29:40.865Z,72.99
2023-10-09T09:30:25.409Z,73.34
2023-10-09T09:31:08.704Z,72.72
2023-10-09T09:31:55.313Z,72.11
2023-10-09T09:32:40.060Z,73.10
2023-10-09T09:33:44.385Z,73.29
2023-10-09T09:34:18.571Z,73.60
2023-10-09T09:35:05.936Z,73.38
2023-10-09T09:35:40.744Z,73.93
2023-10-09T09:36:14.516Z,74.05
2023-10-09T09:37:05.883Z,73.97
2023-10-09T09:37:46.359Z,74.38
2023-10-09T09:38:20.066Z,74.71
2023-10-09T09:39:02.519Z,74.20
2023-10-09T09:39:49.302Z,73.63